Time;durP1;ratioP1;P1;durP2;ratioP2;P2;SDS_P1;SDS_P2;PMS_P1;PMS_P2;Temp;Humidity;BMP_temperature;BMP_pressure;BME280_temperature;BME280_humidity;BME280_pressure;Samples;Min_cycle;Max_cycle;Signal;HPM_P1;HPM_P2
2024/01/08 00:00:11;;;;;;;;;;;;;;;;;;5037654;28;19917;-81
2024/01/08 00:02:37;;;;;;;;;;;;;;;;;;5035893;28;19913;-81
2024/01/08 00:05:02;;;;;;;;;;;;;;;;;;5037132;28;19913;-81
2024/01/08 00:07:28;;;;;;;;;;;;;;;;;;5035584;28;19974;-81
2024/01/08 00:09:53;;;;;;;;;;;;;;;;;;5036505;28;19904;-81
2024/01/08 00:12:18;;;;;;;;;;;;;;;;;;5035064;28;19916;-81
2024/01/08 00:14:44;;;;;;;;;;;;;;;;;;5035950;28;19920;-82
2024/01/08 00:17:09;;;;;;;;;;;;;;;;;;5035060;28;19909;-81
2024/01/08 00:19:34;;;;;;;;;;;;;;;;;;5023530;28;20380;-81
2024/01/08 00:22:00;;;;;;;;;;;;;;;;;;5036910;28;19944;-82
2024/01/08 00:24:25;;;;;;;;;;;;;;;;;;5035933;28;19919;-82
2024/01/08 00:26:50;;;;;;;;;;;;;;;;;;5035955;28;20015;-82
2024/01/08 00:29:16;;;;;;;;;;;;;;;;;;5036306;28;19912;-81
2024/01/08 00:31:41;;;;;;;;;;;;;;;;;;5034674;28;19909;-82
2024/01/08 00:34:06;;;;;;;;;;;;;;;;;;5034922;28;19909;-81
2024/01/08 00:36:32;;;;;;;;;;;;;;;;;;5035549;28;19909;-82
2024/01/08 00:38:57;;;;;;;;;;;;;;;;;;5045398;28;20387;-82
2024/01/08 00:41:22;;;;;;;;;;;;;;;;;;5022356;28;19999;-81
2024/01/08 00:43:49;;;;;;;;;;;;;;;;;;5036616;28;19919;-81
2024/01/08 00:46:14;;;;;;;;;;;;;;;;;;5034774;28;20292;-82
2024/01/08 00:48:39;;;;;;;;;;;;;;;;;;5035654;28;19916;-82
2024/01/08 00:51:04;;;;;;;;;;;;;;;;;;5035958;28;19909;-83
2024/01/08 00:53:30;;;;;;;;;;;;;;;;;;5034794;28;19912;-83
2024/01/08 00:55:55;;;;;;;;;;;;;;;;;;5035612;28;19916;-82
2024/01/08 00:58:21;;;;;;;;;;;;;;;;;;5031621;28;19912;-81
2024/01/08 01:00:46;;;;;;;;;;;;;;;;;;5034637;28;19913;-81
2024/01/08 01:03:11;;;;;;;;;;;;;;;;;;5034323;28;19945;-82
2024/01/08 01:05:37;;;;;;;;;;;;;;;;;;5032302;28;20516;-82
2024/01/08 01:08:02;;;;;;;;;;;;;;;;;;5027881;28;19964;-82
2024/01/08 01:10:27;;;;;;;;;;;;;;;;;;5035254;28;19989;-82
2024/01/08 01:12:53;;;;;;;;;;;;;;;;;;5035088;28;19913;-82
2024/01/08 01:15:18;;;;;;;;;;;;;;;;;;5040217;28;19952;-82
2024/01/08 01:17:43;;;;;;;;;;;;;;;;;;5037636;28;19912;-82
2024/01/08 01:20:09;;;;;;;;;;;;;;;;;;5038800;28;19915;-82
2024/01/08 01:22:34;;;;;;;;;;;;;;;;;;5035529;28;19913;-82
2024/01/08 01:25:00;;;;;;;;;;;;;;;;;;5025995;28;19909;-82
2024/01/08 01:27:25;;;;;;;;;;;;;;;;;;5039342;28;19917;-82
2024/01/08 01:29:51;;;;;;;;;;;;;;;;;;5036814;28;19913;-81
2024/01/08 01:32:16;;;;;;;;;;;;;;;;;;5034328;28;19982;-81
2024/01/08 01:34:41;;;;;;;;;;;;;;;;;;5039012;28;20396;-82
2024/01/08 01:37:07;;;;;;;;;;;;;;;;;;5036343;28;19924;-81
2024/01/08 01:39:33;;;;;;;;;;;;;;;;;;5027846;28;19915;-82
2024/01/08 01:41:58;;;;;;;;;;;;;;;;;;5035288;28;19921;-81
2024/01/08 01:44:23;;;;;;;;;;;;;;;;;;5045283;28;19921;-83
2024/01/08 01:46:49;;;;;;;;;;;;;;;;;;5039877;28;20302;-82
2024/01/08 01:49:14;;;;;;;;;;;;;;;;;;5026044;28;20386;-82
2024/01/08 01:51:39;;;;;;;;;;;;;;;;;;5034975;28;19912;-82
2024/01/08 01:54:05;;;;;;;;;;;;;;;;;;5035208;28;19913;-81
2024/01/08 01:56:30;;;;;;;;;;;;;;;;;;5040715;28;19920;-82
2024/01/08 01:58:55;;;;;;;;;;;;;;;;;;5045880;28;20383;-81
2024/01/08 02:01:21;;;;;;;;;;;;;;;;;;5043764;28;19955;-82
2024/01/08 02:03:46;;;;;;;;;;;;;;;;;;5044377;28;19920;-82
2024/01/08 02:06:11;;;;;;;;;;;;;;;;;;5034242;28;19964;-81
2024/01/08 02:08:37;;;;;;;;;;;;;;;;;;5036880;28;19916;-81
2024/01/08 02:11:03;;;;;;;;;;;;;;;;;;5033173;28;19967;-82
2024/01/08 02:13:28;;;;;;;;;;;;;;;;;;5032213;28;19951;-82
2024/01/08 02:15:53;;;;;;;;;;;;;;;;;;5035274;28;19920;-81
2024/01/08 02:18:19;;;;;;;;;;;;;;;;;;5036731;28;19909;-82
2024/01/08 02:20:44;;;;;;;;;;;;;;;;;;5033631;28;19967;-82
2024/01/08 02:23:09;;;;;;;;;;;;;;;;;;5036661;28;19909;-82
2024/01/08 02:25:35;;;;;;;;;;;;;;;;;;5032885;28;20332;-82
2024/01/08 02:28:00;;;;;;;;;;;;;;;;;;5035183;28;19920;-82
2024/01/08 02:30:25;;;;;;;;;;;;;;;;;;5033631;28;19913;-82
2024/01/08 02:32:51;;;;;;;;;;;;;;;;;;5033326;28;19995;-82
2024/01/08 02:35:16;;;;;;;;;;;;;;;;;;5031906;28;19916;-82
2024/01/08 02:37:41;;;;;;;;;;;;;;;;;;5036022;28;19909;-81
2024/01/08 02:40:07;;;;;;;;;;;;;;;;;;5033784;28;19917;-82
2024/01/08 02:42:32;;;;;;;;;;;;;;;;;;5040040;28;20303;-81
2024/01/08 02:44:58;;;;;;;;;;;;;;;;;;5034829;28;20405;-82
2024/01/08 02:47:23;;;;;;;;;;;;;;;;;;5026734;28;19913;-81
2024/01/08 02:49:48;;;;;;;;;;;;;;;;;;5036905;28;20272;-81
2024/01/08 02:52:13;;;;;;;;;;;;;;;;;;5032238;28;19916;-82
2024/01/08 02:54:39;;;;;;;;;;;;;;;;;;5033074;28;19916;-81
2024/01/08 02:57:04;;;;;;;;;;;;;;;;;;5033645;28;19909;-82
2024/01/08 02:59:30;;;;;;;;;;;;;;;;;;5032996;28;20372;-83
2024/01/08 03:01:56;;;;;;;;;;;;;;;;;;5036004;28;19959;-83
2024/01/08 03:04:21;;;;;;;;;;;;;;;;;;5046008;28;19963;-81
2024/01/08 03:06:46;;;;;;;;;;;;;;;;;;5034246;28;19967;-81
2024/01/08 03:09:12;;;;;;;;;;;;;;;;;;5033704;28;19924;-82
2024/01/08 03:11:37;;;;;;;;;;;;;;;;;;5032423;28;19936;-82
2024/01/08 03:14:02;;;;;;;;;;;;;;;;;;5034387;28;19913;-82
2024/01/08 03:16:28;;;;;;;;;;;;;;;;;;5033812;28;20285;-82
2024/01/08 03:18:53;;;;;;;;;;;;;;;;;;5033668;28;19912;-82
2024/01/08 03:21:18;;;;;;;;;;;;;;;;;;5033146;28;19916;-82
2024/01/08 03:23:44;;;;;;;;;;;;;;;;;;5031962;28;19920;-82
2024/01/08 03:26:09;;;;;;;;;;;;;;;;;;5033397;28;19909;-80
2024/01/08 03:28:34;;;;;;;;;;;;;;;;;;5032383;28;19916;-81
2024/01/08 03:31:00;;;;;;;;;;;;;;;;;;5033376;28;19909;-81
2024/01/08 03:33:25;;;;;;;;;;;;;;;;;;5033830;28;19913;-82
2024/01/08 03:35:50;;;;;;;;;;;;;;;;;;5033789;28;19908;-81
2024/01/08 03:38:16;;;;;;;;;;;;;;;;;;5033799;28;20299;-82
2024/01/08 03:40:41;;;;;;;;;;;;;;;;;;5032942;28;19936;-82
2024/01/08 03:43:06;;;;;;;;;;;;;;;;;;5032639;28;20011;-81
2024/01/08 03:45:32;;;;;;;;;;;;;;;;;;5032649;28;19971;-82
2024/01/08 03:47:57;;;;;;;;;;;;;;;;;;5032951;28;20273;-82
2024/01/08 03:50:22;;;;;;;;;;;;;;;;;;5032514;28;19909;-82
2024/01/08 03:52:48;;;;;;;;;;;;;;;;;;5033071;28;19920;-82
2024/01/08 03:55:13;;;;;;;;;;;;;;;;;;5031681;28;19909;-82
2024/01/08 03:57:38;;;;;;;;;;;;;;;;;;5032105;28;19913;-81
2024/01/08 04:00:04;;;;;;;;;;;;;;;;;;5032758;28;19909;-81
2024/01/08 04:02:36;;;;;;;;;;;;;;;;;;5024525;28;20368;-82
2024/01/08 04:05:01;;;;;;;;;;;;;;;;;;5033032;28;19971;-81
2024/01/08 04:07:26;;;;;;;;;;;;;;;;;;5040596;28;19984;-83
2024/01/08 04:09:52;;;;;;;;;;;;;;;;;;5033070;28;20007;-81
2024/01/08 04:12:17;;;;;;;;;;;;;;;;;;5035268;28;20383;-83
2024/01/08 04:14:43;;;;;;;;;;;;;;;;;;5036531;28;19913;-82
2024/01/08 04:17:08;;;;;;;;;;;;;;;;;;5036347;28;19909;-82
2024/01/08 04:19:33;;;;;;;;;;;;;;;;;;5035269;28;19913;-82
2024/01/08 04:21:59;;;;;;;;;;;;;;;;;;5036352;28;19909;-81
2024/01/08 04:24:24;;;;;;;;;;;;;;;;;;5036466;28;20356;-83
2024/01/08 04:26:49;;;;;;;;;;;;;;;;;;5033387;28;20019;-82
2024/01/08 04:29:15;;;;;;;;;;;;;;;;;;5036552;28;19994;-82
2024/01/08 04:31:40;;;;;;;;;;;;;;;;;;5018491;28;20361;-82
2024/01/08 04:34:05;;;;;;;;;;;;;;;;;;5035600;28;19913;-81
2024/01/08 04:36:31;;;;;;;;;;;;;;;;;;5035526;28;19916;-81
2024/01/08 04:38:56;;;;;;;;;;;;;;;;;;5035700;28;20052;-81
2024/01/08 04:41:21;;;;;;;;;;;;;;;;;;5034930;28;19937;-82
2024/01/08 04:43:47;;;;;;;;;;;;;;;;;;5035819;28;19917;-83
2024/01/08 04:46:12;;;;;;;;;;;;;;;;;;5035782;28;19928;-82
2024/01/08 04:48:38;;;;;;;;;;;;;;;;;;5035715;28;19919;-82
2024/01/08 04:51:03;;;;;;;;;;;;;;;;;;5019222;28;19909;-82
2024/01/08 04:53:28;;;;;;;;;;;;;;;;;;5035704;28;19913;-82
2024/01/08 04:55:53;;;;;;;;;;;;;;;;;;5034419;28;20708;-82
2024/01/08 04:58:19;;;;;;;;;;;;;;;;;;5031963;28;19964;-82
2024/01/08 05:00:44;;;;;;;;;;;;;;;;;;5035839;28;19909;-82
2024/01/08 05:03:09;;;;;;;;;;;;;;;;;;5035418;28;19913;-81
2024/01/08 05:05:35;;;;;;;;;;;;;;;;;;5035354;28;19963;-82
2024/01/08 05:08:00;;;;;;;;;;;;;;;;;;5036903;28;19924;-82
2024/01/08 05:10:25;;;;;;;;;;;;;;;;;;5021664;28;20257;-81
2024/01/08 05:12:51;;;;;;;;;;;;;;;;;;5035752;28;19913;-81
2024/01/08 05:15:16;;;;;;;;;;;;;;;;;;5036536;28;19952;-82
2024/01/08 05:17:41;;;;;;;;;;;;;;;;;;5034812;28;20011;-81
2024/01/08 05:20:07;;;;;;;;;;;;;;;;;;5035269;28;19913;-81
2024/01/08 05:22:33;;;;;;;;;;;;;;;;;;5035249;28;19968;-81
2024/01/08 05:24:58;;;;;;;;;;;;;;;;;;5033820;28;19936;-81
2024/01/08 05:27:23;;;;;;;;;;;;;;;;;;5033965;28;19925;-81
2024/01/08 05:29:49;;;;;;;;;;;;;;;;;;5033806;28;19908;-81
2024/01/08 05:32:14;;;;;;;;;;;;;;;;;;5039477;28;19913;-81
2024/01/08 05:34:41;;;;;;;;;;;;;;;;;;5033455;28;19992;-81
2024/01/08 05:37:07;;;;;;;;;;;;;;;;;;5034840;28;19967;-81
2024/01/08 05:39:32;;;;;;;;;;;;;;;;;;5022440;28;19913;-82
2024/01/08 05:41:57;;;;;;;;;;;;;;;;;;5038762;28;19912;-82
2024/01/08 05:44:23;;;;;;;;;;;;;;;;;;5039225;28;20339;-82
2024/01/08 05:46:48;;;;;;;;;;;;;;;;;;5040646;28;19917;-83
2024/01/08 05:49:13;;;;;;;;;;;;;;;;;;5043134;28;20368;-81
2024/01/08 05:51:39;;;;;;;;;;;;;;;;;;5032754;28;19917;-81
2024/01/08 05:54:04;;;;;;;;;;;;;;;;;;5030750;28;19959;-82
2024/01/08 05:56:31;;;;;;;;;;;;;;;;;;5050441;28;20391;-83
2024/01/08 05:58:56;;;;;;;;;;;;;;;;;;5039418;28;20367;-82
2024/01/08 06:01:22;;;;;;;;;;;;;;;;;;5036949;28;19960;-82
2024/01/08 06:03:47;;;;;;;;;;;;;;;;;;5039174;28;20253;-82
2024/01/08 06:06:12;;;;;;;;;;;;;;;;;;5031579;28;19920;-82
2024/01/08 06:08:40;;;;;;;;;;;;;;;;;;5029799;28;20277;-82
2024/01/08 06:11:05;;;;;;;;;;;;;;;;;;5034321;28;19967;-82
2024/01/08 06:13:31;;;;;;;;;;;;;;;;;;5045280;28;20004;-82
2024/01/08 06:15:56;;;;;;;;;;;;;;;;;;5039618;28;20432;-82
2024/01/08 06:18:22;;;;;;;;;;;;;;;;;;5034562;28;19909;-82
2024/01/08 06:20:47;;;;;;;;;;;;;;;;;;5034501;28;20295;-81
2024/01/08 06:23:12;;;;;;;;;;;;;;;;;;5033752;28;19909;-82
2024/01/08 06:25:37;;;;;;;;;;;;;;;;;;5034312;28;20409;-82
2024/01/08 06:28:03;;;;;;;;;;;;;;;;;;5032414;28;20296;-82
2024/01/08 06:30:28;;;;;;;;;;;;;;;;;;5032299;28;20446;-82
2024/01/08 06:32:54;;;;;;;;;;;;;;;;;;5033497;28;19964;-81
2024/01/08 06:35:19;;;;;;;;;;;;;;;;;;5030311;28;20423;-82
2024/01/08 06:37:44;;;;;;;;;;;;;;;;;;5029355;28;19931;-82
2024/01/08 06:40:10;;;;;;;;;;;;;;;;;;5033439;28;19912;-82
2024/01/08 06:42:35;;;;;;;;;;;;;;;;;;5031796;28;19909;-82
2024/01/08 06:45:00;;;;;;;;;;;;;;;;;;5031963;28;20054;-82
2024/01/08 06:47:26;;;;;;;;;;;;;;;;;;5031953;28;19916;-83
2024/01/08 06:49:51;;;;;;;;;;;;;;;;;;5033580;28;19913;-82
2024/01/08 06:52:16;;;;;;;;;;;;;;;;;;5033863;28;19916;-82
2024/01/08 06:54:42;;;;;;;;;;;;;;;;;;5033552;28;19917;-82
2024/01/08 06:57:07;;;;;;;;;;;;;;;;;;5032326;28;19924;-82
2024/01/08 06:59:33;;;;;;;;;;;;;;;;;;5035456;28;19913;-83
2024/01/08 07:01:58;;;;;;;;;;;;;;;;;;5031782;28;19909;-82
2024/01/08 07:04:23;;;;;;;;;;;;;;;;;;5033152;28;19913;-82
2024/01/08 07:06:49;;;;;;;;;;;;;;;;;;5032026;28;19913;-83
2024/01/08 07:09:14;;;;;;;;;;;;;;;;;;5032917;28;20020;-83
2024/01/08 07:11:39;;;;;;;;;;;;;;;;;;5033547;28;20330;-82
2024/01/08 07:14:05;;;;;;;;;;;;;;;;;;5039916;28;20303;-84
2024/01/08 07:16:30;;;;;;;;;;;;;;;;;;5034811;28;19909;-83
2024/01/08 07:18:56;;;;;;;;;;;;;;;;;;5030821;28;19913;-83
2024/01/08 07:21:22;;;;;;;;;;;;;;;;;;5034024;28;19916;-83
2024/01/08 07:23:48;;;;;;;;;;;;;;;;;;5027294;28;19971;-82
2024/01/08 07:26:14;;;;;;;;;;;;;;;;;;5033365;28;20364;-83
2024/01/08 07:28:39;;;;;;;;;;;;;;;;;;5033046;28;19936;-83
2024/01/08 07:31:05;;;;;;;;;;;;;;;;;;5037490;28;19908;-82
2024/01/08 07:33:30;;;;;;;;;;;;;;;;;;5037133;28;20003;-84
2024/01/08 07:35:56;;;;;;;;;;;;;;;;;;5040924;28;20023;-81
2024/01/08 07:38:22;;;;;;;;;;;;;;;;;;5031959;28;19921;-82
2024/01/08 07:40:47;;;;;;;;;;;;;;;;;;5032735;28;19913;-81
2024/01/08 07:43:12;;;;;;;;;;;;;;;;;;5019335;28;19913;-81
2024/01/08 07:45:37;;;;;;;;;;;;;;;;;;5020562;28;19952;-81
2024/01/08 07:48:03;;;;;;;;;;;;;;;;;;5035743;28;20019;-81
2024/01/08 07:50:29;;;;;;;;;;;;;;;;;;5035327;28;20052;-80
2024/01/08 07:52:54;;;;;;;;;;;;;;;;;;5034808;28;20372;-80
2024/01/08 07:55:20;;;;;;;;;;;;;;;;;;5035784;28;19916;-80
2024/01/08 07:57:46;;;;;;;;;;;;;;;;;;5036456;28;19940;-79
2024/01/08 08:00:11;;;;;;;;;;;;;;;;;;5039861;28;19909;-80
2024/01/08 08:02:37;;;;;;;;;;;;;;;;;;5037064;28;19932;-82
2024/01/08 08:05:02;;;;;;;;;;;;;;;;;;5041951;28;19998;-82
2024/01/08 08:07:28;;;;;;;;;;;;;;;;;;5035075;28;19916;-80
2024/01/08 08:09:54;;;;;;;;;;;;;;;;;;5035672;28;19913;-80
2024/01/08 08:12:19;;;;;;;;;;;;;;;;;;5035002;28;19913;-82
2024/01/08 08:14:47;;;;;;;;;;;;;;;;;;5033605;28;19960;-79
2024/01/08 08:17:12;;;;;;;;;;;;;;;;;;5026593;28;19913;-81
2024/01/08 08:19:38;;;;;;;;;;;;;;;;;;5040922;28;20295;-80
2024/01/08 08:22:03;;;;;;;;;;;;;;;;;;5035045;28;19913;-80
2024/01/08 08:24:28;;;;;;;;;;;;;;;;;;5031885;28;19913;-82
2024/01/08 08:26:54;;;;;;;;;;;;;;;;;;5034775;28;20402;-81
2024/01/08 08:29:19;;;;;;;;;;;;;;;;;;5039776;28;19912;-80
2024/01/08 08:31:44;;;;;;;;;;;;;;;;;;5040325;28;20283;-80
2024/01/08 08:34:10;;;;;;;;;;;;;;;;;;5035321;28;20338;-80
2024/01/08 08:36:35;;;;;;;;;;;;;;;;;;5034930;28;19920;-82
2024/01/08 08:39:00;;;;;;;;;;;;;;;;;;5034976;28;20426;-82
2024/01/08 08:41:26;;;;;;;;;;;;;;;;;;5046810;28;20008;-80
2024/01/08 08:43:53;;;;;;;;;;;;;;;;;;5035892;28;19944;-81
2024/01/08 08:46:19;;;;;;;;;;;;;;;;;;5036186;28;20007;-81
2024/01/08 08:48:44;;;;;;;;;;;;;;;;;;5034467;28;20008;-82
2024/01/08 08:51:09;;;;;;;;;;;;;;;;;;5034313;28;20294;-85
2024/01/08 08:53:35;;;;;;;;;;;;;;;;;;5032678;28;20047;-79
2024/01/08 08:56:00;;;;;;;;;;;;;;;;;;5050852;28;19920;-79
2024/01/08 08:58:26;;;;;;;;;;;;;;;;;;5025733;28;19909;-82
2024/01/08 09:00:51;;;;;;;;;;;;;;;;;;5036275;28;20398;-80
2024/01/08 09:03:17;;;;;;;;;;;;;;;;;;5036591;28;20319;-80
2024/01/08 09:05:42;;;;;;;;;;;;;;;;;;5033444;28;19913;-79
2024/01/08 09:08:07;;;;;;;;;;;;;;;;;;5033084;28;19927;-82
2024/01/08 09:10:33;;;;;;;;;;;;;;;;;;5038197;28;19913;-80
2024/01/08 09:12:58;;;;;;;;;;;;;;;;;;5035787;28;19963;-78
2024/01/08 09:15:23;;;;;;;;;;;;;;;;;;5039050;28;20288;-81
2024/01/08 09:17:49;;;;;;;;;;;;;;;;;;5031218;28;19936;-78
2024/01/08 09:20:15;;;;;;;;;;;;;;;;;;5039694;28;19980;-80
2024/01/08 09:22:40;;;;;;;;;;;;;;;;;;5040150;28;20000;-78
2024/01/08 09:25:06;;;;;;;;;;;;;;;;;;5033655;28;19912;-79
2024/01/08 09:27:32;;;;;;;;;;;;;;;;;;5033012;28;19913;-79
2024/01/08 09:29:57;;;;;;;;;;;;;;;;;;5028834;28;19912;-79
2024/01/08 09:32:23;;;;;;;;;;;;;;;;;;5032551;28;20430;-80
2024/01/08 09:34:48;;;;;;;;;;;;;;;;;;5030714;28;19923;-80
2024/01/08 09:37:14;;;;;;;;;;;;;;;;;;5039851;28;19917;-80
2024/01/08 09:39:39;;;;;;;;;;;;;;;;;;5031361;28;19963;-78
2024/01/08 09:42:05;;;;;;;;;;;;;;;;;;5029934;28;19915;-80
2024/01/08 09:44:30;;;;;;;;;;;;;;;;;;5032970;28;20330;-80
2024/01/08 09:46:55;;;;;;;;;;;;;;;;;;5031346;28;19917;-80
2024/01/08 09:49:21;;;;;;;;;;;;;;;;;;5049722;28;19913;-80
2024/01/08 09:51:47;;;;;;;;;;;;;;;;;;5039770;28;19913;-80
2024/01/08 09:54:12;;;;;;;;;;;;;;;;;;5031880;28;19917;-79
2024/01/08 09:56:37;;;;;;;;;;;;;;;;;;5034294;28;20387;-79
2024/01/08 09:59:03;;;;;;;;;;;;;;;;;;5032984;28;19913;-79
2024/01/08 10:01:28;;;;;;;;;;;;;;;;;;5033579;28;19959;-80
2024/01/08 10:03:53;;;;;;;;;;;;;;;;;;5035382;28;20573;-79
2024/01/08 10:06:19;;;;;;;;;;;;;;;;;;5027740;28;19909;-79
2024/01/08 10:08:44;;;;;;;;;;;;;;;;;;5029801;28;19921;-79
2024/01/08 10:11:10;;;;;;;;;;;;;;;;;;5026943;28;19909;-79
2024/01/08 10:13:36;;;;;;;;;;;;;;;;;;5033117;28;19917;-80
2024/01/08 10:16:01;;;;;;;;;;;;;;;;;;5034324;28;20428;-80
2024/01/08 10:18:26;;;;;;;;;;;;;;;;;;5032477;28;19923;-79
2024/01/08 10:20:52;;;;;;;;;;;;;;;;;;5034785;28;20276;-79
2024/01/08 10:23:17;;;;;;;;;;;;;;;;;;5034534;28;20418;-79
2024/01/08 10:25:43;;;;;;;;;;;;;;;;;;5033599;28;19909;-80
2024/01/08 10:28:08;;;;;;;;;;;;;;;;;;5031007;28;19924;-79
2024/01/08 10:30:33;;;;;;;;;;;;;;;;;;5035825;28;19909;-80
2024/01/08 10:33:02;;;;;;;;;;;;;;;;;;5032350;28;20000;-79
2024/01/08 10:35:29;;;;;;;;;;;;;;;;;;5030034;28;19913;-78
2024/01/08 10:37:55;;;;;;;;;;;;;;;;;;5030852;28;20062;-79
2024/01/08 10:40:20;;;;;;;;;;;;;;;;;;5032573;28;19955;-79
2024/01/08 10:42:45;;;;;;;;;;;;;;;;;;5035168;28;19917;-79
2024/01/08 10:45:11;;;;;;;;;;;;;;;;;;5037662;28;20439;-79
2024/01/08 10:47:37;;;;;;;;;;;;;;;;;;5039436;28;19956;-80
2024/01/08 10:50:02;;;;;;;;;;;;;;;;;;5032133;28;20291;-80
2024/01/08 10:52:28;;;;;;;;;;;;;;;;;;5029926;28;19912;-79
2024/01/08 10:54:53;;;;;;;;;;;;;;;;;;5031749;28;20008;-80
2024/01/08 10:57:19;;;;;;;;;;;;;;;;;;5031156;28;20008;-79
2024/01/08 10:59:44;;;;;;;;;;;;;;;;;;5031966;28;19966;-79
2024/01/08 11:02:13;;;;;;;;;;;;;;;;;;5032701;28;19912;-79
2024/01/08 11:04:39;;;;;;;;;;;;;;;;;;5033447;28;19960;-79
2024/01/08 11:07:05;;;;;;;;;;;;;;;;;;5033796;28;20383;-79
2024/01/08 11:09:30;;;;;;;;;;;;;;;;;;5031371;28;19919;-80
2024/01/08 11:11:56;;;;;;;;;;;;;;;;;;5031500;28;19913;-78
2024/01/08 11:14:21;;;;;;;;;;;;;;;;;;5029667;28;19909;-79
2024/01/08 11:16:47;;;;;;;;;;;;;;;;;;5032895;28;20388;-79
2024/01/08 11:19:13;;;;;;;;;;;;;;;;;;5031946;28;19908;-79
2024/01/08 11:21:38;;;;;;;;;;;;;;;;;;5035525;28;20409;-78
2024/01/08 11:24:03;;;;;;;;;;;;;;;;;;5040760;28;19916;-80
2024/01/08 11:26:29;;;;;;;;;;;;;;;;;;5039200;28;19912;-80
2024/01/08 11:28:54;;;;;;;;;;;;;;;;;;5037341;28;19909;-80
2024/01/08 11:31:20;;;;;;;;;;;;;;;;;;5029971;28;19913;-80
2024/01/08 11:33:46;;;;;;;;;;;;;;;;;;5038526;28;19913;-79
2024/01/08 11:36:11;;;;;;;;;;;;;;;;;;5038521;28;19967;-79
2024/01/08 11:38:37;;;;;;;;;;;;;;;;;;5036106;28;19913;-81
2024/01/08 11:41:03;;;;;;;;;;;;;;;;;;5038077;28;20295;-79
2024/01/08 11:43:28;;;;;;;;;;;;;;;;;;5039599;28;19959;-80
2024/01/08 11:45:53;;;;;;;;;;;;;;;;;;5031974;28;19971;-77
2024/01/08 11:48:19;;;;;;;;;;;;;;;;;;5039392;28;20407;-79
2024/01/08 11:50:45;;;;;;;;;;;;;;;;;;5035018;28;19913;-79
2024/01/08 11:53:11;;;;;;;;;;;;;;;;;;5045986;28;19916;-79
2024/01/08 11:55:36;;;;;;;;;;;;;;;;;;5038629;28;19917;-81
2024/01/08 11:58:03;;;;;;;;;;;;;;;;;;5037244;28;19909;-79
2024/01/08 12:00:28;;;;;;;;;;;;;;;;;;5026031;28;19921;-79
2024/01/08 12:02:53;;;;;;;;;;;;;;;;;;5036590;28;19909;-79
2024/01/08 12:05:19;;;;;;;;;;;;;;;;;;5040030;28;19916;-78
2024/01/08 12:07:45;;;;;;;;;;;;;;;;;;5034952;28;20411;-79
2024/01/08 12:10:12;;;;;;;;;;;;;;;;;;5033428;28;20372;-79
2024/01/08 12:12:38;;;;;;;;;;;;;;;;;;5036625;28;19917;-79
2024/01/08 12:15:04;;;;;;;;;;;;;;;;;;5034770;28;19920;-79
2024/01/08 12:17:29;;;;;;;;;;;;;;;;;;5035467;28;19909;-79
2024/01/08 12:19:54;;;;;;;;;;;;;;;;;;5036194;28;19963;-79
2024/01/08 12:22:20;;;;;;;;;;;;;;;;;;5036745;28;19947;-79
2024/01/08 12:24:45;;;;;;;;;;;;;;;;;;5030713;28;20463;-79
2024/01/08 12:27:11;;;;;;;;;;;;;;;;;;5032443;28;19925;-80
2024/01/08 12:29:36;;;;;;;;;;;;;;;;;;5032058;28;19924;-80
2024/01/08 12:32:03;;;;;;;;;;;;;;;;;;5029395;28;19909;-79
2024/01/08 12:34:29;;;;;;;;;;;;;;;;;;5037207;28;19920;-80
2024/01/08 12:36:54;;;;;;;;;;;;;;;;;;5038824;28;19909;-80
2024/01/08 12:39:19;;;;;;;;;;;;;;;;;;5035547;28;19955;-79
2024/01/08 12:41:45;;;;;;;;;;;;;;;;;;5039901;28;19917;-79
2024/01/08 12:44:10;;;;;;;;;;;;;;;;;;5035817;28;20137;-80
2024/01/08 12:46:36;;;;;;;;;;;;;;;;;;5038618;28;20386;-80
2024/01/08 12:49:02;;;;;;;;;;;;;;;;;;5037239;28;19913;-80
2024/01/08 12:51:27;;;;;;;;;;;;;;;;;;5034951;28;19915;-80
2024/01/08 12:53:53;;;;;;;;;;;;;;;;;;5039032;28;19936;-79
2024/01/08 12:56:18;;;;;;;;;;;;;;;;;;5032183;28;19909;-79
2024/01/08 12:58:44;;;;;;;;;;;;;;;;;;5033165;28;19913;-79
2024/01/08 13:01:09;;;;;;;;;;;;;;;;;;5034195;28;19916;-79
2024/01/08 13:03:59;;;;;;;;;;;;;;;;;;5034076;28;19920;-79
2024/01/08 13:06:25;;;;;;;;;;;;;;;;;;5049581;28;19912;-80
2024/01/08 13:08:50;;;;;;;;;;;;;;;;;;5036325;28;19994;-78
2024/01/08 13:11:16;;;;;;;;;;;;;;;;;;5040749;28;19919;-80
2024/01/08 13:13:41;;;;;;;;;;;;;;;;;;5035738;28;20302;-80
2024/01/08 13:16:06;;;;;;;;;;;;;;;;;;5041816;28;19967;-80
2024/01/08 13:18:32;;;;;;;;;;;;;;;;;;5031293;28;19971;-80
2024/01/08 13:20:57;;;;;;;;;;;;;;;;;;5024295;28;20724;-80
2024/01/08 13:23:22;;;;;;;;;;;;;;;;;;5034128;28;19955;-80
2024/01/08 13:25:48;;;;;;;;;;;;;;;;;;5027445;28;19913;-80
2024/01/08 13:28:13;;;;;;;;;;;;;;;;;;5036173;28;20366;-80
2024/01/08 13:30:38;;;;;;;;;;;;;;;;;;5038489;28;19913;-81
2024/01/08 13:33:03;;;;;;;;;;;;;;;;;;5035426;28;20015;-80
2024/01/08 13:35:29;;;;;;;;;;;;;;;;;;5033059;28;19913;-81
2024/01/08 13:37:54;;;;;;;;;;;;;;;;;;5033745;28;20368;-81
2024/01/08 13:40:21;;;;;;;;;;;;;;;;;;5024668;28;19925;-79
2024/01/08 13:42:49;;;;;;;;;;;;;;;;;;5025886;28;19974;-80
2024/01/08 13:45:15;;;;;;;;;;;;;;;;;;5025483;28;19925;-79
2024/01/08 13:47:40;;;;;;;;;;;;;;;;;;5031928;28;20457;-79
2024/01/08 13:50:07;;;;;;;;;;;;;;;;;;5020344;28;19920;-81
2024/01/08 13:52:32;;;;;;;;;;;;;;;;;;5020734;28;19913;-79
2024/01/08 13:54:57;;;;;;;;;;;;;;;;;;5023142;28;19913;-80
2024/01/08 13:57:23;;;;;;;;;;;;;;;;;;5024049;28;19909;-81
2024/01/08 13:59:48;;;;;;;;;;;;;;;;;;5001703;28;19917;-80
2024/01/08 14:02:14;;;;;;;;;;;;;;;;;;5025835;28;20031;-81
2024/01/08 14:04:39;;;;;;;;;;;;;;;;;;5031386;28;19944;-80
2024/01/08 14:07:04;;;;;;;;;;;;;;;;;;5021315;28;19924;-79
2024/01/08 14:09:30;;;;;;;;;;;;;;;;;;5025028;28;19972;-79
2024/01/08 14:11:55;;;;;;;;;;;;;;;;;;5024158;28;19909;-81
2024/01/08 14:14:20;;;;;;;;;;;;;;;;;;5023744;28;19920;-80
2024/01/08 14:16:46;;;;;;;;;;;;;;;;;;5022186;28;19913;-78
2024/01/08 14:19:11;;;;;;;;;;;;;;;;;;5025516;28;19956;-80
2024/01/08 14:21:37;;;;;;;;;;;;;;;;;;5022957;28;19990;-79
2024/01/08 14:24:02;;;;;;;;;;;;;;;;;;5022177;28;19968;-81
2024/01/08 14:26:27;;;;;;;;;;;;;;;;;;5028330;28;19912;-78
2024/01/08 14:28:54;;;;;;;;;;;;;;;;;;5021269;28;19913;-80
2024/01/08 14:31:19;;;;;;;;;;;;;;;;;;5025889;28;19909;-81
2024/01/08 14:33:44;;;;;;;;;;;;;;;;;;5010606;28;20523;-80
2024/01/08 14:36:10;;;;;;;;;;;;;;;;;;5024715;28;20468;-81
2024/01/08 14:38:35;;;;;;;;;;;;;;;;;;5022897;28;19913;-79
2024/01/08 14:41:00;;;;;;;;;;;;;;;;;;5025362;28;20013;-82
2024/01/08 14:43:26;;;;;;;;;;;;;;;;;;5027806;28;19912;-81
2024/01/08 14:45:52;;;;;;;;;;;;;;;;;;5026574;28;20279;-79
2024/01/08 14:48:17;;;;;;;;;;;;;;;;;;5025193;28;20297;-78
2024/01/08 14:50:44;;;;;;;;;;;;;;;;;;5024231;28;19986;-80
2024/01/08 14:53:09;;;;;;;;;;;;;;;;;;5022490;28;19952;-81
2024/01/08 14:55:34;;;;;;;;;;;;;;;;;;5025653;28;19987;-79
2024/01/08 14:58:00;;;;;;;;;;;;;;;;;;5024139;28;19920;-79
2024/01/08 15:00:25;;;;;;;;;;;;;;;;;;5025038;28;19909;-78
2024/01/08 15:02:51;;;;;;;;;;;;;;;;;;5025078;28;20308;-79
2024/01/08 15:05:16;;;;;;;;;;;;;;;;;;5017991;28;19963;-79
2024/01/08 15:07:42;;;;;;;;;;;;;;;;;;5021713;28;19924;-80
2024/01/08 15:10:07;;;;;;;;;;;;;;;;;;5024068;28;19913;-79
2024/01/08 15:12:33;;;;;;;;;;;;;;;;;;5023007;28;19912;-79
2024/01/08 15:14:58;;;;;;;;;;;;;;;;;;5040272;28;19987;-78
2024/01/08 15:17:24;;;;;;;;;;;;;;;;;;5030887;28;19913;-80
2024/01/08 15:19:49;;;;;;;;;;;;;;;;;;5018540;28;19956;-81
2024/01/08 15:22:15;;;;;;;;;;;;;;;;;;5031755;28;19913;-80
2024/01/08 15:24:40;;;;;;;;;;;;;;;;;;5032059;28;19909;-80
2024/01/08 15:27:05;;;;;;;;;;;;;;;;;;5029341;28;19952;-79
2024/01/08 15:29:32;;;;;;;;;;;;;;;;;;5017362;28;19909;-79
2024/01/08 15:31:57;;;;;;;;;;;;;;;;;;5034339;28;19917;-79
2024/01/08 15:34:23;;;;;;;;;;;;;;;;;;5030529;28;20008;-79
2024/01/08 15:36:48;;;;;;;;;;;;;;;;;;5019830;28;20020;-78
2024/01/08 15:39:16;;;;;;;;;;;;;;;;;;5045488;28;19913;-78
2024/01/08 15:41:41;;;;;;;;;;;;;;;;;;5040231;28;19955;-78
2024/01/08 15:44:07;;;;;;;;;;;;;;;;;;5045877;28;20350;-79
2024/01/08 15:46:32;;;;;;;;;;;;;;;;;;5035171;28;20288;-80
2024/01/08 15:48:58;;;;;;;;;;;;;;;;;;5030515;28;19975;-79
2024/01/08 15:51:24;;;;;;;;;;;;;;;;;;5029942;28;20275;-80
2024/01/08 15:53:50;;;;;;;;;;;;;;;;;;5030165;28;19909;-79
2024/01/08 15:56:15;;;;;;;;;;;;;;;;;;5029671;28;20356;-80
2024/01/08 15:58:41;;;;;;;;;;;;;;;;;;5037319;28;20335;-77
2024/01/08 16:01:06;;;;;;;;;;;;;;;;;;5030245;28;20405;-80
2024/01/08 16:03:31;;;;;;;;;;;;;;;;;;5042007;28;20003;-79
2024/01/08 16:05:58;;;;;;;;;;;;;;;;;;5040192;28;20004;-79
2024/01/08 16:08:23;;;;;;;;;;;;;;;;;;5034424;28;20384;-79
2024/01/08 16:10:48;;;;;;;;;;;;;;;;;;5033935;28;19920;-77
2024/01/08 16:13:14;;;;;;;;;;;;;;;;;;5034460;28;19999;-78
2024/01/08 16:15:40;;;;;;;;;;;;;;;;;;5033959;28;19999;-79
2024/01/08 16:18:05;;;;;;;;;;;;;;;;;;5034289;28;20406;-79
2024/01/08 16:20:31;;;;;;;;;;;;;;;;;;5033961;28;19919;-79
2024/01/08 16:22:56;;;;;;;;;;;;;;;;;;5034589;28;19955;-78
2024/01/08 16:25:22;;;;;;;;;;;;;;;;;;5034521;28;20368;-79
2024/01/08 16:27:47;;;;;;;;;;;;;;;;;;5035311;28;20324;-78
2024/01/08 16:30:14;;;;;;;;;;;;;;;;;;5037161;28;20019;-78
2024/01/08 16:32:39;;;;;;;;;;;;;;;;;;5035592;28;19913;-80